»·PEaware :: VRD1488 KLAX-KLAS

VRD1488 :: KLAX-KLAS

FLIGHT INFORMATION

Flight Status: Arrived
Operator:
Virgin America
More flights by this operator :: More flights under this callsign
Pilot: James D. (13710)
Aircraft: AIRBUS A320
(A320)
More flights by this aircraft type
Origin: KLAX Los Angeles Intl
United States
Destination: KLAS McCarran Intl
United States
More flights between these airports :: More routes between these airports
Route: +ORCKA2 MISEN KEPEC6
File this flight plan on PilotEdge
Remarks:
Altitude:
(Current/Filed)
29,000ft
Speed:
(Current/Filed)
320kts
Departed: 03-Dec-17 09:20 AM
Arrived: 03-Dec-17 10:06 AM
Distance/Time
Traveled:
205nm/0:45
Distance/Time
To Go:
Arrived

Flight Plot

Page will automatically refresh every two minutes.

Flight plan parsing failed; only flown route is shown


Map Options




Map Legend


Flown Route
Filed Route
Departure Airport
Arrival Airport
Navaid (VOR, NDB)
Fix

Horizontal Profiles

Position Reports

Time Latitude Longitude Heading Altitude Ground
Speed
03-Dec-17 08:51 33.941460 -118.401505 264 112ft 0kts
03-Dec-17 08:52 33.941460 -118.401505 264 112ft 0kts
03-Dec-17 08:53 33.941460 -118.401505 264 112ft 0kts
03-Dec-17 08:54 33.941460 -118.401505 264 112ft 0kts
03-Dec-17 08:55 33.941460 -118.401505 264 112ft 0kts
03-Dec-17 08:56 33.941460 -118.401505 264 112ft 0kts
03-Dec-17 08:57 33.941460 -118.401505 264 112ft 0kts
03-Dec-17 08:58 33.941460 -118.401505 264 112ft 0kts
03-Dec-17 08:59 33.941460 -118.401505 264 112ft 0kts
03-Dec-17 09:00 33.941460 -118.401505 264 112ft 0kts
03-Dec-17 09:01 33.941460 -118.401505 264 112ft 0kts
03-Dec-17 09:02 33.941460 -118.401505 264 112ft 0kts
03-Dec-17 09:03 33.941460 -118.401505 264 112ft 0kts
03-Dec-17 09:04 33.941460 -118.401505 264 112ft 0kts
03-Dec-17 09:05 33.941460 -118.401505 264 112ft 0kts
03-Dec-17 09:06 33.941460 -118.401505 264 112ft 0kts
03-Dec-17 09:07 33.941460 -118.401505 264 112ft 0kts
03-Dec-17 09:08 33.941460 -118.401505 264 112ft 0kts
03-Dec-17 09:09 33.941463 -118.401473 264 112ft 2kts
03-Dec-17 09:10 33.941573 -118.400960 228 112ft 2kts
03-Dec-17 09:11 33.941811 -118.400801 193 112ft 0kts
03-Dec-17 09:12 33.941731 -118.400817 187 112ft 6kts
03-Dec-17 09:13 33.940516 -118.400654 174 112ft 0kts
03-Dec-17 09:14 33.940516 -118.400654 174 112ft 0kts
03-Dec-17 09:15 33.940516 -118.400654 174 112ft 0kts
03-Dec-17 09:16 33.940516 -118.400654 174 112ft 0kts
03-Dec-17 09:17 33.940386 -118.400639 174 112ft 7kts
03-Dec-17 09:18 33.938977 -118.398056 82 112ft 13kts
03-Dec-17 09:19 33.939539 -118.392706 83 112ft 20kts
03-Dec-17 09:20 33.940373 -118.384486 83 112ft 27kts
03-Dec-17 09:21 33.940738 -118.380963 85 112ft 0kts
03-Dec-17 09:22 33.940738 -118.380963 85 112ft 0kts
03-Dec-17 09:23 33.940738 -118.380963 85 112ft 0kts
03-Dec-17 09:24 33.940738 -118.380963 85 112ft 0kts
03-Dec-17 09:25 33.939280 -118.385551 263 112ft 95kts
03-Dec-17 09:26 33.933838 -118.441331 264 2461ft 191kts
03-Dec-17 09:27 33.915551 -118.514005 249 4785ft 268kts
03-Dec-17 09:28 33.887856 -118.598416 249 5005ft 272kts
03-Dec-17 09:29 33.849181 -118.667645 195 5020ft 273kts
03-Dec-17 09:30 33.800031 -118.619398 81 6307ft 276kts
03-Dec-17 09:31 33.845319 -118.547943 43 10301ft 269kts
03-Dec-17 09:32 33.899980 -118.478940 41 12627ft 320kts
03-Dec-17 09:33 33.963724 -118.388967 54 13879ft 391kts
03-Dec-17 09:34 34.012675 -118.291914 53 15531ft 414kts
03-Dec-17 09:35 34.077336 -118.177958 54 17509ft 433kts
03-Dec-17 09:36 34.141684 -118.064039 54 19239ft 449kts
03-Dec-17 09:37 34.208920 -117.944573 54 20819ft 464kts
03-Dec-17 09:38 34.275640 -117.825645 54 22394ft 474kts
03-Dec-17 09:39 34.350461 -117.691948 52 23596ft 494kts
03-Dec-17 09:40 34.431147 -117.556826 51 24983ft 505kts
03-Dec-17 09:41 34.491448 -117.455549 51 25952ft 513kts
03-Dec-17 09:42 34.573925 -117.316567 51 26991ft 527kts
03-Dec-17 09:43 34.659405 -117.171924 51 28129ft 533kts
03-Dec-17 09:44 34.745816 -117.025147 51 29155ft 534kts
03-Dec-17 09:45 34.827429 -116.885953 51 29112ft 538kts
03-Dec-17 09:46 34.913785 -116.738059 51 29117ft 538kts
03-Dec-17 09:47 34.998364 -116.588759 52 29119ft 538kts
03-Dec-17 09:48 35.082729 -116.438803 52 29145ft 539kts
03-Dec-17 09:49 35.177516 -116.309747 41 28818ft 525kts
03-Dec-17 09:50 35.272532 -116.190551 41 25094ft 495kts
03-Dec-17 09:51 35.361424 -116.078612 41 21467ft 465kts
03-Dec-17 09:52 35.447234 -115.970164 42 17694ft 434kts
03-Dec-17 09:53 35.527206 -115.868819 41 15280ft 400kts
03-Dec-17 09:54 35.602429 -115.773179 42 13728ft 383kts
03-Dec-17 09:55 35.672918 -115.683268 41 12977ft 342kts
03-Dec-17 09:56 35.737469 -115.600815 41 12967ft 335kts
03-Dec-17 09:57 35.818700 -115.571850 355 12986ft 309kts
03-Dec-17 09:58 35.904556 -115.567265 355 12945ft 311kts
03-Dec-17 09:59 35.981820 -115.530280 65 12869ft 330kts
03-Dec-17 10:00 36.014550 -115.427383 69 11315ft 326kts
03-Dec-17 10:01 36.028032 -115.329318 99 10293ft 285kts
03-Dec-17 10:02 36.021068 -115.237111 98 9197ft 280kts
03-Dec-17 10:03 36.014456 -115.142895 98 8095ft 263kts
03-Dec-17 10:04 36.009039 -115.059585 98 7207ft 228kts
03-Dec-17 10:05 36.005381 -114.997290 98 6279ft 217kts
03-Dec-17 10:06 36.043601 -114.953245 21 5203ft 195kts
03-Dec-17 10:07 36.074159 -114.995866 261 3883ft 166kts
03-Dec-17 10:08 36.073806 -115.050972 263 3334ft 147kts
03-Dec-17 10:09 36.073754 -115.091563 263 2676ft 139kts
03-Dec-17 10:10 36.073525 -115.138647 274 2121ft 122kts
03-Dec-17 10:11 36.074877 -115.150925 303 2120ft 27kts
03-Dec-17 10:12 36.078042 -115.150488 97 2120ft 14kts
03-Dec-17 10:13 36.079862 -115.147206 64 2120ft 11kts

Navigation Log

Ident Type
Flight plan parsing failed, navigation log unavailable